createdAt,value
2017-11-16T00:01:05.193Z,31.23
2017-11-16T00:06:05.967Z,25.20
2017-11-16T00:11:06.759Z,23.03
2017-11-16T00:16:07.558Z,31.03
2017-11-16T00:21:08.349Z,26.17
2017-11-16T00:26:31.453Z,22.67
2017-11-16T00:31:32.242Z,24.57
2017-11-16T00:36:33.015Z,27.80
2017-11-16T00:41:33.843Z,24.83
2017-11-16T00:46:34.630Z,30.10
2017-11-16T00:51:35.413Z,28.37
2017-11-16T00:56:36.191Z,33.13
2017-11-16T01:01:37.031Z,31.70
2017-11-16T01:06:37.859Z,27.47
2017-11-16T01:11:38.651Z,29.27
2017-11-16T01:16:39.454Z,32.43
2017-11-16T01:21:40.278Z,28.03
2017-11-16T01:26:41.119Z,31.27
2017-11-16T01:31:41.910Z,30.17
2017-11-16T01:36:42.698Z,30.73
2017-11-16T01:41:43.487Z,34.07
2017-11-16T01:46:44.305Z,34.27
2017-11-16T01:51:45.115Z,29.13
2017-11-16T01:57:07.004Z,27.20
2017-11-16T02:02:20.270Z,30.57
2017-11-16T02:07:21.058Z,28.50
2017-11-16T02:32:26.404Z,24.30
2017-11-16T02:37:27.188Z,26.90
2017-11-16T02:42:31.088Z,27.90
2017-11-16T02:47:31.905Z,29.47
2017-11-16T02:52:32.728Z,30.20
2017-11-16T02:57:33.544Z,26.30
2017-11-16T03:02:34.347Z,24.93
2017-11-16T03:07:35.754Z,22.20
2017-11-16T03:12:36.558Z,30.03
2017-11-16T03:17:37.363Z,29.63
2017-11-16T03:22:38.159Z,29.40
2017-11-16T03:27:38.955Z,30.80
2017-11-16T03:32:57.271Z,25.13
2017-11-16T03:37:58.062Z,31.37
2017-11-16T03:42:58.881Z,28.83
2017-11-16T03:47:59.668Z,26.70
2017-11-16T03:53:00.480Z,32.43
2017-11-16T03:58:21.474Z,25.90
2017-11-16T04:03:22.280Z,24.33
2017-11-16T04:08:23.078Z,26.93
2017-11-16T04:13:34.549Z,30.40
2017-11-16T04:18:35.378Z,29.50
2017-11-16T04:23:36.172Z,29.90
2017-11-16T04:28:36.966Z,26.10
2017-11-16T04:34:02.249Z,28.90
2017-11-16T04:39:03.082Z,28.77
2017-11-16T04:44:03.844Z,32.13
2017-11-16T04:49:04.648Z,36.63
2017-11-16T04:54:05.449Z,31.37
2017-11-16T04:59:06.220Z,29.50
2017-11-16T05:04:07.006Z,31.13
2017-11-16T05:09:07.815Z,30.37
2017-11-16T05:14:08.619Z,31.40
2017-11-16T05:19:09.415Z,40.10
2017-11-16T05:24:10.200Z,24.63
2017-11-16T05:29:14.481Z,23.67
2017-11-16T05:34:20.364Z,24.33
2017-11-16T05:39:21.185Z,25.03
2017-11-16T05:44:34.502Z,26.00
2017-11-16T05:49:35.318Z,25.70
2017-11-16T05:54:46.315Z,23.50
2017-11-16T05:59:47.110Z,22.47
2017-11-16T06:04:47.952Z,24.63
2017-11-16T06:09:48.775Z,23.50
2017-11-16T06:14:49.583Z,23.80
2017-11-16T06:19:50.393Z,23.63
2017-11-16T06:24:51.219Z,27.47
2017-11-16T06:29:52.018Z,25.40
2017-11-16T06:34:52.833Z,29.70
2017-11-16T06:39:53.667Z,30.03
2017-11-16T06:44:59.592Z,26.43
2017-11-16T06:50:00.411Z,25.40
2017-11-16T06:55:01.241Z,20.80
2017-11-16T07:00:02.085Z,21.73
2017-11-16T07:05:02.909Z,26.20
2017-11-16T07:10:03.719Z,23.13
2017-11-16T07:15:04.532Z,22.70
2017-11-16T07:20:05.331Z,24.70
2017-11-16T07:25:06.161Z,22.10
2017-11-16T07:30:06.974Z,24.53
2017-11-16T07:35:07.798Z,22.77
2017-11-16T07:40:08.620Z,20.87
2017-11-16T07:50:40.970Z,18.90
2017-11-16T07:55:41.763Z,16.00
2017-11-16T08:00:42.577Z,22.23
2017-11-16T08:05:43.388Z,21.23
2017-11-16T08:10:44.217Z,17.13
2017-11-16T08:15:45.056Z,17.70
2017-11-16T08:20:45.871Z,20.47
2017-11-16T08:25:59.915Z,19.90
2017-11-16T08:31:00.726Z,16.93
2017-11-16T08:36:01.542Z,18.23
2017-11-16T08:41:02.370Z,21.30
2017-11-16T08:46:03.180Z,19.40
2017-11-16T08:51:04.009Z,18.57
2017-11-16T08:56:04.863Z,14.23
2017-11-16T09:01:05.703Z,19.17
2017-11-16T09:06:06.524Z,18.43
2017-11-16T09:11:07.356Z,18.93
2017-11-16T09:16:11.774Z,17.23
2017-11-16T09:21:12.595Z,14.77
2017-11-16T09:26:30.578Z,16.50
2017-11-16T09:31:31.419Z,18.93
2017-11-16T09:36:32.251Z,17.60
2017-11-16T09:41:50.587Z,16.77
2017-11-16T09:47:02.653Z,15.10
2017-11-16T09:52:13.744Z,17.00
2017-11-16T09:57:14.581Z,15.90
2017-11-16T10:13:19.346Z,14.97
2017-11-16T10:18:20.130Z,14.90
2017-11-16T10:23:20.939Z,17.33
2017-11-16T10:34:04.775Z,15.47
2017-11-16T10:39:05.637Z,12.67
2017-11-16T10:44:06.424Z,13.80
2017-11-16T10:49:07.227Z,17.67
2017-11-16T10:54:08.052Z,15.97
2017-11-16T10:59:08.882Z,18.43
2017-11-16T11:04:09.695Z,14.03
2017-11-16T11:09:10.502Z,16.17
2017-11-16T11:19:38.827Z,14.50
2017-11-16T11:24:43.147Z,15.20
2017-11-16T11:29:43.950Z,14.03
2017-11-16T11:34:44.772Z,16.50
2017-11-16T11:39:45.579Z,13.13
2017-11-16T11:44:46.367Z,15.80
2017-11-16T11:49:54.226Z,16.53
2017-11-16T11:54:55.062Z,16.20
2017-11-16T12:16:19.366Z,13.47
2017-11-16T12:21:20.196Z,20.20
2017-11-16T12:26:21.055Z,15.00
2017-11-16T12:31:21.903Z,14.00
2017-11-16T12:36:22.756Z,16.50
2017-11-16T12:41:23.573Z,13.53
2017-11-16T12:46:24.448Z,12.87
2017-11-16T12:51:25.266Z,14.03
2017-11-16T12:56:26.101Z,14.43
2017-11-16T13:01:26.918Z,17.70
2017-11-16T13:06:27.715Z,16.10
2017-11-16T13:11:28.543Z,16.03
2017-11-16T13:16:29.340Z,13.80
2017-11-16T13:21:30.155Z,15.80
2017-11-16T13:26:50.947Z,15.37
2017-11-16T13:31:51.756Z,14.87
2017-11-16T13:36:52.582Z,14.07
2017-11-16T13:41:53.364Z,13.37
2017-11-16T13:46:54.157Z,13.87
2017-11-16T13:51:54.946Z,14.63
2017-11-16T13:56:55.765Z,19.30
2017-11-16T14:01:56.551Z,17.10
2017-11-16T14:06:57.354Z,14.17
2017-11-16T14:11:58.155Z,17.03
2017-11-16T14:16:58.952Z,22.60
2017-11-16T14:21:59.760Z,21.43
2017-11-16T14:27:00.574Z,20.40
2017-11-16T14:32:01.354Z,22.90
2017-11-16T14:37:02.167Z,21.10
2017-11-16T14:42:02.987Z,19.97
2017-11-16T14:47:03.785Z,19.90
2017-11-16T14:52:04.655Z,24.03
2017-11-16T14:57:05.492Z,23.27
2017-11-16T15:02:06.314Z,23.23
2017-11-16T15:07:07.116Z,25.63
2017-11-16T15:12:07.895Z,26.53
2017-11-16T15:17:08.688Z,23.70
2017-11-16T15:22:09.982Z,27.30
2017-11-16T15:27:10.783Z,25.50
2017-11-16T15:32:21.686Z,20.47
2017-11-16T15:37:28.768Z,21.77
2017-11-16T15:42:40.301Z,23.53
2017-11-16T15:53:19.700Z,32.00
2017-11-16T15:58:20.526Z,22.83
2017-11-16T16:03:23.335Z,22.93
2017-11-16T16:08:38.560Z,24.33
2017-11-16T16:13:54.958Z,25.17
2017-11-16T16:18:55.750Z,25.80
2017-11-16T16:24:06.667Z,26.40
2017-11-16T16:29:07.495Z,25.60
2017-11-16T16:34:11.960Z,23.60
2017-11-16T16:39:12.766Z,22.83
2017-11-16T16:44:16.908Z,24.17
2017-11-16T16:49:17.689Z,24.30
2017-11-16T16:54:18.507Z,20.77
2017-11-16T16:59:19.348Z,24.87
2017-11-16T17:04:20.124Z,25.77
2017-11-16T17:09:20.911Z,25.67
2017-11-16T17:14:21.708Z,22.40
2017-11-16T17:19:22.486Z,30.40
2017-11-16T17:24:30.187Z,24.80
2017-11-16T17:29:31.003Z,26.07
2017-11-16T17:34:31.795Z,25.97
2017-11-16T17:39:32.587Z,30.83
2017-11-16T17:44:33.400Z,27.17
2017-11-16T17:49:34.233Z,22.53
2017-11-16T17:54:35.050Z,26.33
2017-11-16T17:59:35.862Z,27.43
2017-11-16T18:04:36.653Z,28.37
2017-11-16T18:09:37.473Z,29.87
2017-11-16T18:14:53.621Z,23.73
2017-11-16T18:19:54.415Z,20.90
2017-11-16T18:24:55.187Z,27.17
2017-11-16T18:29:56.007Z,27.50
2017-11-16T18:35:03.449Z,22.80
2017-11-16T18:40:04.236Z,26.50
2017-11-16T18:45:05.025Z,22.63
2017-11-16T18:50:05.793Z,27.70
2017-11-16T18:55:12.702Z,25.23
2017-11-16T19:00:13.489Z,25.63
2017-11-16T19:05:15.394Z,27.50
2017-11-16T19:10:16.174Z,26.50
2017-11-16T19:15:20.440Z,26.63
2017-11-16T19:20:21.226Z,24.13
2017-11-16T19:25:22.017Z,26.20
2017-11-16T19:30:22.796Z,26.07
2017-11-16T19:41:02.660Z,27.40
2017-11-16T19:46:03.481Z,22.67
2017-11-16T19:51:15.620Z,27.37
2017-11-16T19:56:16.411Z,28.00
2017-11-16T20:01:17.202Z,28.90
2017-11-16T20:06:38.095Z,26.03
2017-11-16T20:11:38.894Z,26.30
2017-11-16T20:16:39.672Z,23.00
2017-11-16T20:32:47.243Z,26.57
2017-11-16T20:37:56.038Z,24.80
2017-11-16T20:42:58.712Z,28.50
2017-11-16T20:53:41.250Z,26.97
2017-11-16T20:58:42.073Z,31.97
2017-11-16T21:03:43.375Z,27.67
2017-11-16T21:08:44.163Z,25.00
2017-11-16T21:13:44.951Z,29.83
2017-11-16T21:18:45.773Z,29.43
2017-11-16T21:23:46.568Z,30.03
2017-11-16T21:28:47.381Z,26.93
2017-11-16T21:44:48.729Z,28.73
2017-11-16T21:49:49.516Z,32.93
2017-11-16T21:54:50.291Z,31.43
2017-11-16T22:00:15.023Z,31.07
2017-11-16T22:05:15.798Z,29.90
2017-11-16T22:26:40.462Z,36.93
2017-11-16T22:32:02.802Z,39.60
2017-11-16T22:37:03.595Z,36.23
2017-11-16T22:42:04.383Z,30.37
2017-11-16T22:47:11.545Z,41.90
2017-11-16T22:57:58.287Z,31.53
2017-11-16T23:03:11.166Z,35.93
2017-11-16T23:08:14.996Z,31.30
2017-11-16T23:13:22.688Z,35.43
2017-11-16T23:18:47.544Z,34.67
2017-11-16T23:23:48.351Z,34.20
2017-11-16T23:28:59.415Z,43.97
2017-11-16T23:34:06.280Z,40.17
2017-11-16T23:39:07.106Z,36.20
2017-11-16T23:44:07.915Z,34.13
2017-11-16T23:49:21.813Z,31.10
2017-11-16T23:54:22.643Z,31.63
2017-11-16T23:59:23.479Z,36.20
